sensor_id;sensor_type;location;lat;lon;timestamp;P1;durP1;ratioP1;P2;durP2;ratioP2
65583;SDS011;62116;43.582;1.470;2022-07-23T00:00:04;6.38;;;2.10;;
65583;SDS011;62116;43.582;1.470;2022-07-23T00:02:30;6.20;;;2.20;;
65583;SDS011;62116;43.582;1.470;2022-07-23T00:04:56;6.57;;;2.00;;
65583;SDS011;62116;43.582;1.470;2022-07-23T00:07:21;6.75;;;1.95;;
65583;SDS011;62116;43.582;1.470;2022-07-23T00:09:47;6.35;;;2.00;;
65583;SDS011;62116;43.582;1.470;2022-07-23T00:12:12;5.45;;;1.83;;
65583;SDS011;62116;43.582;1.470;2022-07-23T00:14:38;6.20;;;2.10;;
65583;SDS011;62116;43.582;1.470;2022-07-23T00:17:03;6.07;;;1.90;;
65583;SDS011;62116;43.582;1.470;2022-07-23T00:19:28;6.82;;;2.20;;
65583;SDS011;62116;43.582;1.470;2022-07-23T00:21:54;6.10;;;2.00;;
65583;SDS011;62116;43.582;1.470;2022-07-23T00:24:20;5.65;;;2.20;;
65583;SDS011;62116;43.582;1.470;2022-07-23T00:26:45;7.03;;;2.22;;
65583;SDS011;62116;43.582;1.470;2022-07-23T00:29:11;5.90;;;2.10;;
65583;SDS011;62116;43.582;1.470;2022-07-23T00:31:36;9.05;;;2.05;;
65583;SDS011;62116;43.582;1.470;2022-07-23T00:34:02;5.13;;;2.03;;
65583;SDS011;62116;43.582;1.470;2022-07-23T00:36:28;5.85;;;1.80;;
65583;SDS011;62116;43.582;1.470;2022-07-23T00:38:53;5.05;;;2.15;;
65583;SDS011;62116;43.582;1.470;2022-07-23T00:41:19;5.93;;;2.03;;
65583;SDS011;62116;43.582;1.470;2022-07-23T00:43:44;6.93;;;2.30;;
65583;SDS011;62116;43.582;1.470;2022-07-23T00:46:10;8.93;;;2.25;;
65583;SDS011;62116;43.582;1.470;2022-07-23T00:48:36;10.43;;;2.42;;
65583;SDS011;62116;43.582;1.470;2022-07-23T00:51:02;8.55;;;2.60;;
65583;SDS011;62116;43.582;1.470;2022-07-23T00:53:27;10.32;;;2.63;;
65583;SDS011;62116;43.582;1.470;2022-07-23T00:55:53;7.28;;;2.40;;
65583;SDS011;62116;43.582;1.470;2022-07-23T00:58:19;6.70;;;2.33;;
65583;SDS011;62116;43.582;1.470;2022-07-23T01:00:45;7.32;;;2.40;;
65583;SDS011;62116;43.582;1.470;2022-07-23T01:03:11;9.70;;;2.70;;
65583;SDS011;62116;43.582;1.470;2022-07-23T01:05:37;8.25;;;2.75;;
65583;SDS011;62116;43.582;1.470;2022-07-23T01:08:02;6.38;;;2.47;;
65583;SDS011;62116;43.582;1.470;2022-07-23T01:10:28;7.22;;;2.60;;
65583;SDS011;62116;43.582;1.470;2022-07-23T01:12:57;7.05;;;2.45;;
65583;SDS011;62116;43.582;1.470;2022-07-23T01:15:27;6.20;;;2.20;;
65583;SDS011;62116;43.582;1.470;2022-07-23T01:17:52;6.80;;;2.78;;
65583;SDS011;62116;43.582;1.470;2022-07-23T01:20:18;7.70;;;2.85;;
65583;SDS011;62116;43.582;1.470;2022-07-23T01:22:44;5.90;;;2.40;;
65583;SDS011;62116;43.582;1.470;2022-07-23T01:25:10;7.35;;;2.40;;
65583;SDS011;62116;43.582;1.470;2022-07-23T01:27:36;8.77;;;2.85;;
65583;SDS011;62116;43.582;1.470;2022-07-23T01:30:02;7.75;;;2.47;;
65583;SDS011;62116;43.582;1.470;2022-07-23T01:32:28;8.80;;;2.53;;
65583;SDS011;62116;43.582;1.470;2022-07-23T01:34:54;7.63;;;2.60;;
65583;SDS011;62116;43.582;1.470;2022-07-23T01:37:19;8.07;;;2.47;;
65583;SDS011;62116;43.582;1.470;2022-07-23T01:39:45;6.22;;;2.55;;
65583;SDS011;62116;43.582;1.470;2022-07-23T01:42:10;6.88;;;2.50;;
65583;SDS011;62116;43.582;1.470;2022-07-23T01:44:36;6.68;;;2.28;;
65583;SDS011;62116;43.582;1.470;2022-07-23T01:47:01;9.32;;;2.60;;
65583;SDS011;62116;43.582;1.470;2022-07-23T01:49:27;8.40;;;2.58;;
65583;SDS011;62116;43.582;1.470;2022-07-23T01:51:52;7.25;;;2.50;;
65583;SDS011;62116;43.582;1.470;2022-07-23T01:54:27;9.93;;;2.40;;
65583;SDS011;62116;43.582;1.470;2022-07-23T01:56:54;5.28;;;2.47;;
65583;SDS011;62116;43.582;1.470;2022-07-23T01:59:19;7.45;;;2.65;;
65583;SDS011;62116;43.582;1.470;2022-07-23T02:01:46;5.82;;;2.60;;
65583;SDS011;62116;43.582;1.470;2022-07-23T02:04:11;6.97;;;2.40;;
65583;SDS011;62116;43.582;1.470;2022-07-23T02:06:36;5.50;;;2.42;;
65583;SDS011;62116;43.582;1.470;2022-07-23T02:09:02;8.10;;;2.47;;
65583;SDS011;62116;43.582;1.470;2022-07-23T02:11:27;5.38;;;2.28;;
65583;SDS011;62116;43.582;1.470;2022-07-23T02:13:53;7.28;;;2.40;;
65583;SDS011;62116;43.582;1.470;2022-07-23T02:16:19;8.80;;;2.55;;
65583;SDS011;62116;43.582;1.470;2022-07-23T02:18:44;7.22;;;2.45;;
65583;SDS011;62116;43.582;1.470;2022-07-23T02:21:11;5.18;;;2.33;;
65583;SDS011;62116;43.582;1.470;2022-07-23T02:23:36;8.52;;;2.65;;
65583;SDS011;62116;43.582;1.470;2022-07-23T02:26:01;6.22;;;2.55;;
65583;SDS011;62116;43.582;1.470;2022-07-23T02:28:27;6.25;;;2.53;;
65583;SDS011;62116;43.582;1.470;2022-07-23T02:30:52;6.55;;;2.22;;
65583;SDS011;62116;43.582;1.470;2022-07-23T02:33:18;6.20;;;2.55;;
65583;SDS011;62116;43.582;1.470;2022-07-23T02:35:43;7.55;;;2.40;;
65583;SDS011;62116;43.582;1.470;2022-07-23T02:38:09;6.55;;;2.42;;
65583;SDS011;62116;43.582;1.470;2022-07-23T02:40:34;12.38;;;2.63;;
65583;SDS011;62116;43.582;1.470;2022-07-23T02:42:59;5.78;;;2.30;;
65583;SDS011;62116;43.582;1.470;2022-07-23T02:45:25;9.60;;;2.65;;
65583;SDS011;62116;43.582;1.470;2022-07-23T02:47:50;6.43;;;2.35;;
65583;SDS011;62116;43.582;1.470;2022-07-23T02:50:16;7.53;;;2.50;;
65583;SDS011;62116;43.582;1.470;2022-07-23T02:52:41;7.25;;;2.60;;
65583;SDS011;62116;43.582;1.470;2022-07-23T02:55:07;7.57;;;2.47;;
65583;SDS011;62116;43.582;1.470;2022-07-23T02:57:33;7.30;;;2.50;;
65583;SDS011;62116;43.582;1.470;2022-07-23T02:59:58;8.30;;;2.45;;
65583;SDS011;62116;43.582;1.470;2022-07-23T03:02:24;6.25;;;2.40;;
65583;SDS011;62116;43.582;1.470;2022-07-23T03:04:49;6.22;;;2.45;;
65583;SDS011;62116;43.582;1.470;2022-07-23T03:07:18;13.05;;;2.63;;
65583;SDS011;62116;43.582;1.470;2022-07-23T03:09:43;7.35;;;2.47;;
65583;SDS011;62116;43.582;1.470;2022-07-23T03:12:09;12.15;;;2.53;;
65583;SDS011;62116;43.582;1.470;2022-07-23T03:14:34;8.98;;;2.72;;
65583;SDS011;62116;43.582;1.470;2022-07-23T03:17:00;8.07;;;2.78;;
65583;SDS011;62116;43.582;1.470;2022-07-23T03:19:25;7.45;;;2.53;;
65583;SDS011;62116;43.582;1.470;2022-07-23T03:21:51;8.55;;;2.50;;
65583;SDS011;62116;43.582;1.470;2022-07-23T03:24:17;7.75;;;2.33;;
65583;SDS011;62116;43.582;1.470;2022-07-23T03:26:43;10.80;;;2.70;;
65583;SDS011;62116;43.582;1.470;2022-07-23T03:29:08;8.32;;;2.47;;
65583;SDS011;62116;43.582;1.470;2022-07-23T03:31:34;8.07;;;2.50;;
65583;SDS011;62116;43.582;1.470;2022-07-23T03:33:59;7.03;;;2.42;;
65583;SDS011;62116;43.582;1.470;2022-07-23T03:36:25;6.43;;;2.17;;
65583;SDS011;62116;43.582;1.470;2022-07-23T03:38:51;7.70;;;2.67;;
65583;SDS011;62116;43.582;1.470;2022-07-23T03:41:17;9.20;;;2.90;;
65583;SDS011;62116;43.582;1.470;2022-07-23T03:43:43;10.77;;;2.70;;
65583;SDS011;62116;43.582;1.470;2022-07-23T03:46:09;7.43;;;2.60;;
65583;SDS011;62116;43.582;1.470;2022-07-23T03:48:34;7.95;;;2.80;;
65583;SDS011;62116;43.582;1.470;2022-07-23T03:51:00;10.32;;;2.60;;
65583;SDS011;62116;43.582;1.470;2022-07-23T03:53:25;8.65;;;2.90;;
65583;SDS011;62116;43.582;1.470;2022-07-23T03:55:51;7.35;;;2.80;;
65583;SDS011;62116;43.582;1.470;2022-07-23T03:58:16;7.90;;;2.80;;
65583;SDS011;62116;43.582;1.470;2022-07-23T04:00:42;8.50;;;2.90;;
65583;SDS011;62116;43.582;1.470;2022-07-23T04:03:07;11.60;;;3.03;;
65583;SDS011;62116;43.582;1.470;2022-07-23T04:05:32;7.35;;;2.63;;
65583;SDS011;62116;43.582;1.470;2022-07-23T04:07:58;11.18;;;2.90;;
65583;SDS011;62116;43.582;1.470;2022-07-23T04:10:24;6.65;;;2.70;;
65583;SDS011;62116;43.582;1.470;2022-07-23T04:12:49;7.63;;;3.13;;
65583;SDS011;62116;43.582;1.470;2022-07-23T04:15:14;10.98;;;3.00;;
65583;SDS011;62116;43.582;1.470;2022-07-23T04:17:40;8.02;;;3.13;;
65583;SDS011;62116;43.582;1.470;2022-07-23T04:20:06;9.30;;;3.08;;
65583;SDS011;62116;43.582;1.470;2022-07-23T04:22:31;7.65;;;2.78;;
65583;SDS011;62116;43.582;1.470;2022-07-23T04:24:57;5.78;;;2.92;;
65583;SDS011;62116;43.582;1.470;2022-07-23T04:27:22;7.75;;;3.10;;
65583;SDS011;62116;43.582;1.470;2022-07-23T04:29:48;10.52;;;2.60;;
65583;SDS011;62116;43.582;1.470;2022-07-23T04:32:13;7.30;;;2.47;;
65583;SDS011;62116;43.582;1.470;2022-07-23T04:34:38;8.65;;;2.95;;
65583;SDS011;62116;43.582;1.470;2022-07-23T04:37:04;6.85;;;2.95;;
65583;SDS011;62116;43.582;1.470;2022-07-23T04:39:30;8.82;;;2.70;;
65583;SDS011;62116;43.582;1.470;2022-07-23T04:41:55;6.55;;;2.55;;
65583;SDS011;62116;43.582;1.470;2022-07-23T04:44:21;10.07;;;3.08;;
65583;SDS011;62116;43.582;1.470;2022-07-23T04:46:46;6.70;;;2.95;;
65583;SDS011;62116;43.582;1.470;2022-07-23T04:49:12;9.05;;;2.60;;
65583;SDS011;62116;43.582;1.470;2022-07-23T04:51:37;6.50;;;2.80;;
65583;SDS011;62116;43.582;1.470;2022-07-23T04:54:03;10.07;;;3.05;;
65583;SDS011;62116;43.582;1.470;2022-07-23T04:56:28;10.02;;;3.22;;
65583;SDS011;62116;43.582;1.470;2022-07-23T04:58:53;8.45;;;2.60;;
65583;SDS011;62116;43.582;1.470;2022-07-23T05:01:19;7.95;;;3.03;;
65583;SDS011;62116;43.582;1.470;2022-07-23T05:03:44;7.60;;;2.90;;
65583;SDS011;62116;43.582;1.470;2022-07-23T05:06:10;8.05;;;3.10;;
65583;SDS011;62116;43.582;1.470;2022-07-23T05:08:35;8.20;;;2.90;;
65583;SDS011;62116;43.582;1.470;2022-07-23T05:11:00;9.02;;;3.10;;
65583;SDS011;62116;43.582;1.470;2022-07-23T05:13:26;11.32;;;2.90;;
65583;SDS011;62116;43.582;1.470;2022-07-23T05:15:51;9.68;;;3.22;;
65583;SDS011;62116;43.582;1.470;2022-07-23T05:18:17;7.47;;;3.20;;
65583;SDS011;62116;43.582;1.470;2022-07-23T05:20:42;7.30;;;2.70;;
65583;SDS011;62116;43.582;1.470;2022-07-23T05:23:08;7.32;;;2.83;;
65583;SDS011;62116;43.582;1.470;2022-07-23T05:25:33;9.52;;;2.72;;
65583;SDS011;62116;43.582;1.470;2022-07-23T05:27:59;7.07;;;2.72;;
65583;SDS011;62116;43.582;1.470;2022-07-23T05:30:24;10.20;;;2.85;;
65583;SDS011;62116;43.582;1.470;2022-07-23T05:32:50;4.95;;;2.40;;
65583;SDS011;62116;43.582;1.470;2022-07-23T05:35:15;5.43;;;2.40;;
65583;SDS011;62116;43.582;1.470;2022-07-23T05:37:41;7.13;;;2.47;;
65583;SDS011;62116;43.582;1.470;2022-07-23T05:40:07;6.20;;;2.30;;
65583;SDS011;62116;43.582;1.470;2022-07-23T05:42:38;6.45;;;2.50;;
65583;SDS011;62116;43.582;1.470;2022-07-23T05:45:04;6.28;;;2.35;;
65583;SDS011;62116;43.582;1.470;2022-07-23T05:47:43;5.80;;;2.40;;
65583;SDS011;62116;43.582;1.470;2022-07-23T05:50:12;7.18;;;2.60;;
65583;SDS011;62116;43.582;1.470;2022-07-23T05:52:38;6.13;;;2.35;;
65583;SDS011;62116;43.582;1.470;2022-07-23T05:55:04;6.57;;;2.60;;
65583;SDS011;62116;43.582;1.470;2022-07-23T05:57:30;6.20;;;2.38;;
65583;SDS011;62116;43.582;1.470;2022-07-23T05:59:56;5.57;;;2.45;;
65583;SDS011;62116;43.582;1.470;2022-07-23T06:02:21;8.40;;;2.40;;
65583;SDS011;62116;43.582;1.470;2022-07-23T06:04:46;5.40;;;2.50;;
65583;SDS011;62116;43.582;1.470;2022-07-23T06:07:12;6.68;;;2.40;;
65583;SDS011;62116;43.582;1.470;2022-07-23T06:09:37;5.93;;;2.30;;
65583;SDS011;62116;43.582;1.470;2022-07-23T06:12:03;6.40;;;2.28;;
65583;SDS011;62116;43.582;1.470;2022-07-23T06:14:28;9.48;;;2.50;;
65583;SDS011;62116;43.582;1.470;2022-07-23T06:16:54;7.50;;;2.50;;
65583;SDS011;62116;43.582;1.470;2022-07-23T06:19:19;5.90;;;2.47;;
65583;SDS011;62116;43.582;1.470;2022-07-23T06:21:44;6.32;;;2.38;;
65583;SDS011;62116;43.582;1.470;2022-07-23T06:24:10;6.38;;;2.30;;
65583;SDS011;62116;43.582;1.470;2022-07-23T06:26:35;5.88;;;2.30;;
65583;SDS011;62116;43.582;1.470;2022-07-23T06:29:01;8.07;;;2.20;;
65583;SDS011;62116;43.582;1.470;2022-07-23T06:31:26;7.97;;;2.30;;
65583;SDS011;62116;43.582;1.470;2022-07-23T06:33:52;6.63;;;2.40;;
65583;SDS011;62116;43.582;1.470;2022-07-23T06:36:17;11.07;;;2.50;;
65583;SDS011;62116;43.582;1.470;2022-07-23T06:38:43;6.80;;;2.30;;
65583;SDS011;62116;43.582;1.470;2022-07-23T06:41:08;7.47;;;2.33;;
65583;SDS011;62116;43.582;1.470;2022-07-23T06:43:34;7.40;;;2.40;;
65583;SDS011;62116;43.582;1.470;2022-07-23T06:45:59;6.22;;;2.40;;
65583;SDS011;62116;43.582;1.470;2022-07-23T06:48:25;6.53;;;2.45;;
65583;SDS011;62116;43.582;1.470;2022-07-23T06:50:50;8.93;;;2.40;;
65583;SDS011;62116;43.582;1.470;2022-07-23T06:53:17;7.00;;;2.25;;
65583;SDS011;62116;43.582;1.470;2022-07-23T06:55:43;7.18;;;2.10;;
65583;SDS011;62116;43.582;1.470;2022-07-23T06:58:08;6.57;;;2.03;;
65583;SDS011;62116;43.582;1.470;2022-07-23T07:00:35;7.60;;;2.30;;
65583;SDS011;62116;43.582;1.470;2022-07-23T07:03:00;8.70;;;2.35;;
65583;SDS011;62116;43.582;1.470;2022-07-23T07:05:26;5.80;;;2.17;;
65583;SDS011;62116;43.582;1.470;2022-07-23T07:07:53;8.75;;;2.40;;
65583;SDS011;62116;43.582;1.470;2022-07-23T07:10:20;8.43;;;2.38;;
65583;SDS011;62116;43.582;1.470;2022-07-23T07:12:45;7.90;;;2.28;;
65583;SDS011;62116;43.582;1.470;2022-07-23T07:15:11;8.30;;;2.22;;
65583;SDS011;62116;43.582;1.470;2022-07-23T07:17:37;5.72;;;2.08;;
65583;SDS011;62116;43.582;1.470;2022-07-23T07:20:02;6.85;;;2.10;;
65583;SDS011;62116;43.582;1.470;2022-07-23T07:22:29;7.65;;;2.40;;
65583;SDS011;62116;43.582;1.470;2022-07-23T07:24:54;6.07;;;2.00;;
65583;SDS011;62116;43.582;1.470;2022-07-23T07:27:20;6.63;;;2.30;;
65583;SDS011;62116;43.582;1.470;2022-07-23T07:29:45;5.88;;;2.50;;
65583;SDS011;62116;43.582;1.470;2022-07-23T07:32:11;7.07;;;2.38;;
65583;SDS011;62116;43.582;1.470;2022-07-23T07:34:36;14.45;;;2.53;;
65583;SDS011;62116;43.582;1.470;2022-07-23T07:37:02;13.98;;;2.78;;
65583;SDS011;62116;43.582;1.470;2022-07-23T07:39:27;21.05;;;2.65;;
65583;SDS011;62116;43.582;1.470;2022-07-23T07:41:52;8.32;;;2.42;;
65583;SDS011;62116;43.582;1.470;2022-07-23T07:44:18;9.88;;;2.50;;
65583;SDS011;62116;43.582;1.470;2022-07-23T07:46:43;14.93;;;2.92;;
65583;SDS011;62116;43.582;1.470;2022-07-23T07:49:09;6.88;;;2.15;;
65583;SDS011;62116;43.582;1.470;2022-07-23T07:51:34;6.03;;;2.40;;
65583;SDS011;62116;43.582;1.470;2022-07-23T07:54:00;6.88;;;2.22;;
65583;SDS011;62116;43.582;1.470;2022-07-23T07:56:25;7.65;;;2.00;;
65583;SDS011;62116;43.582;1.470;2022-07-23T07:58:51;10.55;;;2.20;;
65583;SDS011;62116;43.582;1.470;2022-07-23T08:01:16;5.47;;;2.22;;
65583;SDS011;62116;43.582;1.470;2022-07-23T08:03:43;8.35;;;2.60;;
65583;SDS011;62116;43.582;1.470;2022-07-23T08:06:09;6.72;;;2.45;;
65583;SDS011;62116;43.582;1.470;2022-07-23T08:08:34;7.88;;;2.00;;
65583;SDS011;62116;43.582;1.470;2022-07-23T08:10:59;6.40;;;2.35;;
65583;SDS011;62116;43.582;1.470;2022-07-23T08:13:25;6.53;;;2.20;;
65583;SDS011;62116;43.582;1.470;2022-07-23T08:15:50;6.00;;;2.38;;
65583;SDS011;62116;43.582;1.470;2022-07-23T08:18:18;8.75;;;2.30;;
65583;SDS011;62116;43.582;1.470;2022-07-23T08:20:43;6.70;;;2.30;;
65583;SDS011;62116;43.582;1.470;2022-07-23T08:23:09;7.93;;;2.22;;
65583;SDS011;62116;43.582;1.470;2022-07-23T08:25:38;8.43;;;2.35;;
65583;SDS011;62116;43.582;1.470;2022-07-23T08:28:06;7.38;;;2.40;;
65583;SDS011;62116;43.582;1.470;2022-07-23T08:30:33;7.63;;;2.25;;
65583;SDS011;62116;43.582;1.470;2022-07-23T08:33:04;7.20;;;2.40;;
65583;SDS011;62116;43.582;1.470;2022-07-23T08:35:43;8.20;;;2.38;;
65583;SDS011;62116;43.582;1.470;2022-07-23T08:38:13;12.02;;;2.67;;
65583;SDS011;62116;43.582;1.470;2022-07-23T08:40:41;7.65;;;2.40;;
65583;SDS011;62116;43.582;1.470;2022-07-23T08:43:13;6.70;;;2.30;;
65583;SDS011;62116;43.582;1.470;2022-07-23T08:45:43;7.88;;;2.53;;
65583;SDS011;62116;43.582;1.470;2022-07-23T08:48:14;7.18;;;2.30;;
65583;SDS011;62116;43.582;1.470;2022-07-23T08:50:45;4.20;;;2.15;;
65583;SDS011;62116;43.582;1.470;2022-07-23T08:53:14;5.85;;;2.10;;
65583;SDS011;62116;43.582;1.470;2022-07-23T08:55:43;6.28;;;2.00;;
65583;SDS011;62116;43.582;1.470;2022-07-23T08:58:09;7.75;;;2.20;;
65583;SDS011;62116;43.582;1.470;2022-07-23T09:00:35;8.95;;;2.30;;
65583;SDS011;62116;43.582;1.470;2022-07-23T09:03:00;7.15;;;2.22;;
65583;SDS011;62116;43.582;1.470;2022-07-23T09:05:26;6.88;;;2.47;;
65583;SDS011;62116;43.582;1.470;2022-07-23T09:10:46;6.30;;;2.15;;
65583;SDS011;62116;43.582;1.470;2022-07-23T09:15:50;5.88;;;2.30;;
65583;SDS011;62116;43.582;1.470;2022-07-23T09:18:18;6.53;;;1.88;;
65583;SDS011;62116;43.582;1.470;2022-07-23T09:20:44;4.97;;;2.15;;
65583;SDS011;62116;43.582;1.470;2022-07-23T09:23:10;5.90;;;2.03;;
65583;SDS011;62116;43.582;1.470;2022-07-23T09:25:35;9.23;;;1.88;;
65583;SDS011;62116;43.582;1.470;2022-07-23T09:28:01;6.90;;;2.10;;
65583;SDS011;62116;43.582;1.470;2022-07-23T09:30:30;10.98;;;1.98;;
65583;SDS011;62116;43.582;1.470;2022-07-23T09:35:49;4.95;;;1.90;;
65583;SDS011;62116;43.582;1.470;2022-07-23T09:38:20;7.05;;;1.55;;
65583;SDS011;62116;43.582;1.470;2022-07-23T09:41:05;5.38;;;1.88;;
65583;SDS011;62116;43.582;1.470;2022-07-23T09:43:34;5.60;;;1.60;;
65583;SDS011;62116;43.582;1.470;2022-07-23T09:48:44;6.60;;;1.80;;
65583;SDS011;62116;43.582;1.470;2022-07-23T09:51:10;5.72;;;1.70;;
65583;SDS011;62116;43.582;1.470;2022-07-23T09:53:36;6.00;;;1.80;;
65583;SDS011;62116;43.582;1.470;2022-07-23T09:56:01;6.03;;;1.90;;
65583;SDS011;62116;43.582;1.470;2022-07-23T09:58:27;5.55;;;1.65;;
65583;SDS011;62116;43.582;1.470;2022-07-23T10:00:55;11.18;;;2.08;;
65583;SDS011;62116;43.582;1.470;2022-07-23T10:03:22;7.80;;;1.92;;
65583;SDS011;62116;43.582;1.470;2022-07-23T10:05:48;7.45;;;1.80;;
65583;SDS011;62116;43.582;1.470;2022-07-23T10:08:16;5.45;;;1.80;;
65583;SDS011;62116;43.582;1.470;2022-07-23T10:10:45;6.32;;;1.90;;
65583;SDS011;62116;43.582;1.470;2022-07-23T10:13:11;4.70;;;2.10;;
65583;SDS011;62116;43.582;1.470;2022-07-23T10:15:55;5.18;;;1.60;;
65583;SDS011;62116;43.582;1.470;2022-07-23T10:18:20;5.18;;;1.40;;
65583;SDS011;62116;43.582;1.470;2022-07-23T10:20:46;4.10;;;1.38;;
65583;SDS011;62116;43.582;1.470;2022-07-23T10:31:29;4.60;;;1.35;;
65583;SDS011;62116;43.582;1.470;2022-07-23T10:34:07;5.30;;;1.50;;
65583;SDS011;62116;43.582;1.470;2022-07-23T10:39:19;5.05;;;1.60;;
65583;SDS011;62116;43.582;1.470;2022-07-23T10:42:07;2.63;;;1.45;;
65583;SDS011;62116;43.582;1.470;2022-07-23T10:44:54;5.60;;;1.60;;
65583;SDS011;62116;43.582;1.470;2022-07-23T10:47:28;4.93;;;1.60;;
65583;SDS011;62116;43.582;1.470;2022-07-23T10:50:19;3.53;;;1.38;;
65583;SDS011;62116;43.582;1.470;2022-07-23T10:57:57;4.35;;;1.25;;
65583;SDS011;62116;43.582;1.470;2022-07-23T11:00:23;3.60;;;1.23;;
65583;SDS011;62116;43.582;1.470;2022-07-23T11:02:53;5.13;;;1.50;;
65583;SDS011;62116;43.582;1.470;2022-07-23T11:05:24;2.90;;;1.30;;
65583;SDS011;62116;43.582;1.470;2022-07-23T11:10:35;3.03;;;1.45;;
65583;SDS011;62116;43.582;1.470;2022-07-23T11:23:58;4.32;;;1.48;;
65583;SDS011;62116;43.582;1.470;2022-07-23T11:34:43;3.28;;;1.38;;
65583;SDS011;62116;43.582;1.470;2022-07-23T11:40:18;4.47;;;1.23;;
65583;SDS011;62116;43.582;1.470;2022-07-23T11:42:55;2.47;;;1.23;;
65583;SDS011;62116;43.582;1.470;2022-07-23T11:45:29;2.90;;;1.10;;
65583;SDS011;62116;43.582;1.470;2022-07-23T11:47:58;2.25;;;1.05;;
65583;SDS011;62116;43.582;1.470;2022-07-23T11:50:24;4.22;;;1.23;;
65583;SDS011;62116;43.582;1.470;2022-07-23T11:52:53;1.90;;;1.10;;
65583;SDS011;62116;43.582;1.470;2022-07-23T11:55:18;2.13;;;1.13;;
65583;SDS011;62116;43.582;1.470;2022-07-23T11:57:44;2.33;;;1.00;;
65583;SDS011;62116;43.582;1.470;2022-07-23T12:00:12;3.60;;;1.33;;
65583;SDS011;62116;43.582;1.470;2022-07-23T12:02:42;2.58;;;1.30;;
65583;SDS011;62116;43.582;1.470;2022-07-23T12:05:55;2.30;;;1.35;;
65583;SDS011;62116;43.582;1.470;2022-07-23T12:07:59;4.65;;;1.27;;
65583;SDS011;62116;43.582;1.470;2022-07-23T12:10:30;4.05;;;1.55;;
65583;SDS011;62116;43.582;1.470;2022-07-23T12:13:01;3.38;;;1.67;;
65583;SDS011;62116;43.582;1.470;2022-07-23T12:15:32;5.32;;;1.70;;
65583;SDS011;62116;43.582;1.470;2022-07-23T12:18:04;5.28;;;1.80;;
65583;SDS011;62116;43.582;1.470;2022-07-23T12:20:32;3.22;;;1.38;;
65583;SDS011;62116;43.582;1.470;2022-07-23T12:23:00;5.25;;;1.70;;
65583;SDS011;62116;43.582;1.470;2022-07-23T12:25:28;4.78;;;1.50;;
65583;SDS011;62116;43.582;1.470;2022-07-23T12:28:14;4.10;;;1.50;;
65583;SDS011;62116;43.582;1.470;2022-07-23T12:30:45;3.47;;;1.48;;
65583;SDS011;62116;43.582;1.470;2022-07-23T12:33:21;3.45;;;1.50;;
65583;SDS011;62116;43.582;1.470;2022-07-23T12:35:47;7.50;;;1.65;;
65583;SDS011;62116;43.582;1.470;2022-07-23T12:38:14;3.80;;;1.70;;
65583;SDS011;62116;43.582;1.470;2022-07-23T12:40:56;4.03;;;1.33;;
65583;SDS011;62116;43.582;1.470;2022-07-23T12:46:03;4.15;;;1.70;;
65583;SDS011;62116;43.582;1.470;2022-07-23T12:48:34;5.15;;;1.85;;
65583;SDS011;62116;43.582;1.470;2022-07-23T12:51:06;6.30;;;2.00;;
65583;SDS011;62116;43.582;1.470;2022-07-23T12:53:36;4.75;;;2.00;;
65583;SDS011;62116;43.582;1.470;2022-07-23T12:56:11;3.88;;;1.80;;
65583;SDS011;62116;43.582;1.470;2022-07-23T13:01:31;6.45;;;2.00;;
65583;SDS011;62116;43.582;1.470;2022-07-23T13:06:28;3.75;;;1.63;;
65583;SDS011;62116;43.582;1.470;2022-07-23T13:08:55;4.68;;;1.95;;
65583;SDS011;62116;43.582;1.470;2022-07-23T13:11:21;3.33;;;1.70;;
65583;SDS011;62116;43.582;1.470;2022-07-23T13:13:47;4.57;;;2.03;;
65583;SDS011;62116;43.582;1.470;2022-07-23T13:16:12;5.78;;;1.80;;
65583;SDS011;62116;43.582;1.470;2022-07-23T13:18:37;4.57;;;1.80;;
65583;SDS011;62116;43.582;1.470;2022-07-23T13:21:03;4.95;;;1.75;;
65583;SDS011;62116;43.582;1.470;2022-07-23T13:23:28;5.88;;;1.77;;
65583;SDS011;62116;43.582;1.470;2022-07-23T13:25:54;5.43;;;1.92;;
65583;SDS011;62116;43.582;1.470;2022-07-23T13:28:20;5.20;;;1.83;;
65583;SDS011;62116;43.582;1.470;2022-07-23T13:30:47;3.90;;;1.98;;
65583;SDS011;62116;43.582;1.470;2022-07-23T13:33:24;5.35;;;1.80;;
65583;SDS011;62116;43.582;1.470;2022-07-23T13:35:50;3.92;;;1.80;;
65583;SDS011;62116;43.582;1.470;2022-07-23T13:38:17;7.50;;;2.10;;
65583;SDS011;62116;43.582;1.470;2022-07-23T13:40:44;3.85;;;2.20;;
65583;SDS011;62116;43.582;1.470;2022-07-23T13:43:13;7.97;;;2.20;;
65583;SDS011;62116;43.582;1.470;2022-07-23T13:45:40;7.18;;;2.10;;
65583;SDS011;62116;43.582;1.470;2022-07-23T13:48:07;4.47;;;1.95;;
65583;SDS011;62116;43.582;1.470;2022-07-23T13:50:33;6.88;;;2.15;;
65583;SDS011;62116;43.582;1.470;2022-07-23T13:53:06;5.25;;;1.80;;
65583;SDS011;62116;43.582;1.470;2022-07-23T13:55:34;5.65;;;2.40;;
65583;SDS011;62116;43.582;1.470;2022-07-23T13:58:01;4.88;;;2.00;;
65583;SDS011;62116;43.582;1.470;2022-07-23T14:00:28;4.53;;;2.08;;
65583;SDS011;62116;43.582;1.470;2022-07-23T14:02:55;4.40;;;2.33;;
65583;SDS011;62116;43.582;1.470;2022-07-23T14:05:21;5.63;;;2.40;;
65583;SDS011;62116;43.582;1.470;2022-07-23T14:07:47;3.97;;;2.38;;
65583;SDS011;62116;43.582;1.470;2022-07-23T14:10:14;4.53;;;2.10;;
65583;SDS011;62116;43.582;1.470;2022-07-23T14:12:42;5.63;;;2.42;;
65583;SDS011;62116;43.582;1.470;2022-07-23T14:15:08;7.05;;;2.45;;
65583;SDS011;62116;43.582;1.470;2022-07-23T14:17:35;8.52;;;2.55;;
65583;SDS011;62116;43.582;1.470;2022-07-23T14:20:01;3.92;;;2.20;;
65583;SDS011;62116;43.582;1.470;2022-07-23T14:22:26;6.35;;;2.47;;
65583;SDS011;62116;43.582;1.470;2022-07-23T14:24:52;7.57;;;2.70;;
65583;SDS011;62116;43.582;1.470;2022-07-23T14:27:17;5.38;;;2.30;;
65583;SDS011;62116;43.582;1.470;2022-07-23T14:29:43;7.32;;;2.42;;
65583;SDS011;62116;43.582;1.470;2022-07-23T14:32:09;6.15;;;2.50;;
65583;SDS011;62116;43.582;1.470;2022-07-23T14:34:35;6.05;;;2.30;;
65583;SDS011;62116;43.582;1.470;2022-07-23T14:37:01;6.68;;;2.53;;
65583;SDS011;62116;43.582;1.470;2022-07-23T14:39:26;7.03;;;2.60;;
65583;SDS011;62116;43.582;1.470;2022-07-23T14:41:52;5.57;;;2.50;;
65583;SDS011;62116;43.582;1.470;2022-07-23T14:44:17;5.18;;;2.25;;
65583;SDS011;62116;43.582;1.470;2022-07-23T14:46:42;9.48;;;2.50;;
65583;SDS011;62116;43.582;1.470;2022-07-23T14:49:08;6.00;;;2.28;;
65583;SDS011;62116;43.582;1.470;2022-07-23T14:51:34;5.28;;;2.42;;
65583;SDS011;62116;43.582;1.470;2022-07-23T14:54:01;8.50;;;2.50;;
65583;SDS011;62116;43.582;1.470;2022-07-23T14:56:27;6.28;;;2.58;;
65583;SDS011;62116;43.582;1.470;2022-07-23T14:58:53;6.18;;;2.55;;
65583;SDS011;62116;43.582;1.470;2022-07-23T15:01:20;6.05;;;2.35;;
65583;SDS011;62116;43.582;1.470;2022-07-23T15:03:47;7.75;;;2.60;;
65583;SDS011;62116;43.582;1.470;2022-07-23T15:06:13;5.93;;;2.45;;
65583;SDS011;62116;43.582;1.470;2022-07-23T15:08:41;4.93;;;2.60;;
65583;SDS011;62116;43.582;1.470;2022-07-23T15:11:06;5.00;;;2.38;;
65583;SDS011;62116;43.582;1.470;2022-07-23T15:13:34;8.75;;;2.70;;
65583;SDS011;62116;43.582;1.470;2022-07-23T15:15:59;6.28;;;2.42;;
65583;SDS011;62116;43.582;1.470;2022-07-23T15:18:25;5.38;;;2.42;;
65583;SDS011;62116;43.582;1.470;2022-07-23T15:20:50;5.18;;;2.30;;
65583;SDS011;62116;43.582;1.470;2022-07-23T15:23:16;6.75;;;2.53;;
65583;SDS011;62116;43.582;1.470;2022-07-23T15:25:41;6.30;;;2.50;;
65583;SDS011;62116;43.582;1.470;2022-07-23T15:28:06;9.45;;;2.67;;
65583;SDS011;62116;43.582;1.470;2022-07-23T15:30:32;4.97;;;2.50;;
65583;SDS011;62116;43.582;1.470;2022-07-23T15:32:58;6.03;;;2.30;;
65583;SDS011;62116;43.582;1.470;2022-07-23T15:35:23;5.13;;;2.38;;
65583;SDS011;62116;43.582;1.470;2022-07-23T15:37:48;5.97;;;2.55;;
65583;SDS011;62116;43.582;1.470;2022-07-23T15:40:14;5.97;;;2.83;;
65583;SDS011;62116;43.582;1.470;2022-07-23T15:42:39;8.00;;;2.60;;